Aérodrome :
LOGIN :

S'inscrire | Disclaimer

   EN    FR    IT 

 










Légende :    VFR   VFR Marginal   IFR   IFR Intensif   IFR Très Intensif
Visi : 
Plafond : 
>= 8 km
>= 3000ft
5 à 8 km
1000 à 3000 ft
1500m à 5 km
500 à 1000 ft
800 à 1500m
200 à 500 ft
< 800m
< 200 ft
Symboles :   Orages  Brouillard  Fortes neiges  Fortes précipitations  Vent > 20 kt
SIGMETs :   Divers  Orages  Givrage  Turbulence  Onde Orograph.  Cendres Volcan.






- Altitude de l'aérodrome : 2077 ft
- Code IATA : FMM


EDJA - Memmingen

DERNIER METAR :
  • 271250Z 22008KT 2100 -SHSN FEW010 OVC017 M03/M04 Q1014 RESHSN

METARs EXPIRÉS :
  • 271220Z 20007KT 1400 R24/1500N SHSN FEW017 BKN022 OVC026 M03/M04 Q1015
  • 271150Z 20008KT 1000 R24/1200U SHSN FEW012 OVC018 M03/M04 Q1015
  • 271120Z 20007KT 1300 R24/1500D SHSN FEW008 OVC026CB M03/M04 Q1015
  • 271050Z 22007KT 2100 -SHSN OVC031CB M03/M04 Q1015
  • 271020Z 23008KT 2900 -SHSN BKN033CB OVC042 M03/M05 Q1016

TAF TAF EDJA
Valide du 27 à 12h jusqu'au 27 à 21h UTC


271100Z 2712/2721 21007KT 4000 -SN BKN012
TEMPO 2712/2717 1400 SN BKN004
TEMPO 2717/2721 2000 -SN BKN003



MET'MAP, la Météo Aéronautique d'un coup d'oeil ! - Copyright ORBIFLY Décembre 2007 - Disclaimer

ORBIFLY MET'MAP TEAM :

Programmation & Développement : Alexandra Zaïnal
Sur une idée originale de : Baudouin d'Aumeries
Assistance à la programmation : Marc-Olivier Méhu
Soutien technique & logistique : Manuel Goepfert

Contact : metmap@orbifly.com




SOURCES & CREDITS :

   NOAA